sensor_id;sensor_type;location;lat;lon;timestamp;pressure;altitude;pressure_sealevel;temperature;humidity
44697;BME280;57264;47.480;19.354;2023-12-20T00:01:22;99168.78;;;-2.05;94.03
44697;BME280;57264;47.480;19.354;2023-12-20T00:03:47;99161.94;;;-2.09;94.23
44697;BME280;57264;47.480;19.354;2023-12-20T00:06:13;99160.19;;;-2.13;93.87
44697;BME280;57264;47.480;19.354;2023-12-20T00:08:39;99154.91;;;-2.24;94.07
44697;BME280;57264;47.480;19.354;2023-12-20T00:11:04;99154.06;;;-2.23;93.78
44697;BME280;57264;47.480;19.354;2023-12-20T00:13:30;99146.50;;;-2.19;93.90
44697;BME280;57264;47.480;19.354;2023-12-20T00:15:55;99143.09;;;-2.20;93.63
44697;BME280;57264;47.480;19.354;2023-12-20T00:18:21;99146.53;;;-2.16;93.88
44697;BME280;57264;47.480;19.354;2023-12-20T00:20:46;99141.47;;;-2.15;93.78
44697;BME280;57264;47.480;19.354;2023-12-20T00:23:12;99149.16;;;-2.10;93.77
44697;BME280;57264;47.480;19.354;2023-12-20T00:25:38;99133.16;;;-2.05;93.81
44697;BME280;57264;47.480;19.354;2023-12-20T00:28:03;99137.44;;;-2.02;93.92
44697;BME280;57264;47.480;19.354;2023-12-20T00:30:29;99133.22;;;-2.02;94.18
44697;BME280;57264;47.480;19.354;2023-12-20T00:32:56;99133.22;;;-2.00;94.04
44697;BME280;57264;47.480;19.354;2023-12-20T00:35:21;99132.44;;;-1.96;93.89
44697;BME280;57264;47.480;19.354;2023-12-20T00:37:47;99123.97;;;-1.95;93.73
44697;BME280;57264;47.480;19.354;2023-12-20T00:40:12;99123.97;;;-1.95;93.89
44697;BME280;57264;47.480;19.354;2023-12-20T00:42:38;99116.31;;;-1.96;93.58
44697;BME280;57264;47.480;19.354;2023-12-20T00:45:04;99115.47;;;-1.95;93.86
44697;BME280;57264;47.480;19.354;2023-12-20T00:47:30;99104.41;;;-1.99;93.84
44697;BME280;57264;47.480;19.354;2023-12-20T00:49:56;99101.00;;;-2.01;93.63
44697;BME280;57264;47.480;19.354;2023-12-20T00:52:22;99088.28;;;-2.00;93.64
44697;BME280;57264;47.480;19.354;2023-12-20T00:54:48;99084.81;;;-2.03;93.53
44697;BME280;57264;47.480;19.354;2023-12-20T00:57:13;99083.91;;;-2.07;93.87
44697;BME280;57264;47.480;19.354;2023-12-20T00:59:39;99079.69;;;-2.06;93.68
44697;BME280;57264;47.480;19.354;2023-12-20T01:04:30;99082.22;;;-2.08;93.88
44697;BME280;57264;47.480;19.354;2023-12-20T01:06:55;99089.00;;;-2.08;93.46
44697;BME280;57264;47.480;19.354;2023-12-20T01:09:21;99086.41;;;-2.11;93.38
44697;BME280;57264;47.480;19.354;2023-12-20T01:11:49;99071.09;;;-2.14;93.73
44697;BME280;57264;47.480;19.354;2023-12-20T01:14:14;99068.53;;;-2.17;93.37
44697;BME280;57264;47.480;19.354;2023-12-20T01:16:40;99057.44;;;-2.21;93.65
44697;BME280;57264;47.480;19.354;2023-12-20T01:19:05;99067.56;;;-2.24;93.23
44697;BME280;57264;47.480;19.354;2023-12-20T01:21:32;99066.59;;;-2.32;93.53
44697;BME280;57264;47.480;19.354;2023-12-20T01:23:57;99068.28;;;-2.33;93.52
44697;BME280;57264;47.480;19.354;2023-12-20T01:26:23;99067.31;;;-2.38;93.26
44697;BME280;57264;47.480;19.354;2023-12-20T01:28:48;99057.97;;;-2.40;93.42
44697;BME280;57264;47.480;19.354;2023-12-20T01:31:14;99055.19;;;-2.54;93.29
44697;BME280;57264;47.480;19.354;2023-12-20T01:33:39;99054.94;;;-2.69;93.35
44697;BME280;57264;47.480;19.354;2023-12-20T01:36:05;99051.56;;;-2.70;93.42
44697;BME280;57264;47.480;19.354;2023-12-20T01:38:30;99038.69;;;-2.81;93.79
44697;BME280;57264;47.480;19.354;2023-12-20T01:40:56;99032.75;;;-2.80;93.70
44697;BME280;57264;47.480;19.354;2023-12-20T01:43:22;99028.34;;;-2.90;94.00
44697;BME280;57264;47.480;19.354;2023-12-20T01:45:47;99030.09;;;-2.87;93.65
44697;BME280;57264;47.480;19.354;2023-12-20T01:48:15;99020.91;;;-2.79;93.66
44697;BME280;57264;47.480;19.354;2023-12-20T01:50:41;99020.13;;;-2.77;93.57
44697;BME280;57264;47.480;19.354;2023-12-20T01:53:09;99006.63;;;-2.73;93.61
44697;BME280;57264;47.480;19.354;2023-12-20T01:55:39;98997.38;;;-2.67;93.60
44697;BME280;57264;47.480;19.354;2023-12-20T01:58:08;98993.94;;;-2.69;93.69
44697;BME280;57264;47.480;19.354;2023-12-20T02:00:36;98986.97;;;-2.83;93.63
44697;BME280;57264;47.480;19.354;2023-12-20T02:03:03;98986.06;;;-2.86;93.35
44697;BME280;57264;47.480;19.354;2023-12-20T02:05:33;98977.69;;;-2.79;93.86
44697;BME280;57264;47.480;19.354;2023-12-20T02:08:00;98979.41;;;-2.80;93.63
44697;BME280;57264;47.480;19.354;2023-12-20T02:10:25;98971.84;;;-2.74;93.87
44697;BME280;57264;47.480;19.354;2023-12-20T02:12:51;98968.53;;;-2.69;93.84
44697;BME280;57264;47.480;19.354;2023-12-20T02:15:17;98965.31;;;-2.59;93.76
44697;BME280;57264;47.480;19.354;2023-12-20T02:17:43;98965.31;;;-2.59;93.94
44697;BME280;57264;47.480;19.354;2023-12-20T02:20:10;98967.91;;;-2.55;93.75
44697;BME280;57264;47.480;19.354;2023-12-20T02:22:36;98967.06;;;-2.55;93.85
44697;BME280;57264;47.480;19.354;2023-12-20T02:25:01;98960.31;;;-2.53;93.59
44697;BME280;57264;47.480;19.354;2023-12-20T02:27:27;98955.13;;;-2.61;93.76
44697;BME280;57264;47.480;19.354;2023-12-20T02:29:54;98948.28;;;-2.65;93.73
44697;BME280;57264;47.480;19.354;2023-12-20T02:32:21;98944.00;;;-2.67;93.83
44697;BME280;57264;47.480;19.354;2023-12-20T02:34:48;98942.31;;;-2.67;93.91
44697;BME280;57264;47.480;19.354;2023-12-20T02:37:14;98937.28;;;-2.64;93.54
44697;BME280;57264;47.480;19.354;2023-12-20T02:39:39;98932.16;;;-2.65;93.38
44697;BME280;57264;47.480;19.354;2023-12-20T02:42:05;98925.47;;;-2.60;93.61
44697;BME280;57264;47.480;19.354;2023-12-20T02:44:30;98921.19;;;-2.64;93.87
44697;BME280;57264;47.480;19.354;2023-12-20T02:46:56;98910.19;;;-2.62;93.54
44697;BME280;57264;47.480;19.354;2023-12-20T02:49:21;98913.53;;;-2.64;93.76
44697;BME280;57264;47.480;19.354;2023-12-20T02:51:47;98914.47;;;-2.59;93.56
44697;BME280;57264;47.480;19.354;2023-12-20T02:54:12;98916.47;;;-2.37;93.36
44697;BME280;57264;47.480;19.354;2023-12-20T02:56:38;98910.50;;;-2.39;93.32
44697;BME280;57264;47.480;19.354;2023-12-20T02:59:04;98917.13;;;-2.50;93.61
44697;BME280;57264;47.480;19.354;2023-12-20T03:01:34;98914.44;;;-2.61;93.49
44697;BME280;57264;47.480;19.354;2023-12-20T03:04:00;98910.22;;;-2.59;93.55
44697;BME280;57264;47.480;19.354;2023-12-20T03:06:25;98913.69;;;-2.54;93.71
44697;BME280;57264;47.480;19.354;2023-12-20T03:08:51;98906.72;;;-2.67;93.65
44697;BME280;57264;47.480;19.354;2023-12-20T03:11:17;98908.34;;;-2.72;93.40
44697;BME280;57264;47.480;19.354;2023-12-20T03:13:42;98908.28;;;-2.77;93.58
44697;BME280;57264;47.480;19.354;2023-12-20T03:16:12;98903.09;;;-2.84;93.63
44697;BME280;57264;47.480;19.354;2023-12-20T03:18:38;98897.03;;;-2.92;93.44
44697;BME280;57264;47.480;19.354;2023-12-20T03:21:04;98897.03;;;-2.92;93.38
44697;BME280;57264;47.480;19.354;2023-12-20T03:23:30;98893.78;;;-2.84;93.59
44697;BME280;57264;47.480;19.354;2023-12-20T03:25:58;98890.41;;;-2.81;93.36
44697;BME280;57264;47.480;19.354;2023-12-20T03:28:24;98888.66;;;-2.87;93.41
44697;BME280;57264;47.480;19.354;2023-12-20T03:30:50;98889.53;;;-2.83;93.58
44697;BME280;57264;47.480;19.354;2023-12-20T03:33:15;98891.47;;;-2.68;93.40
44697;BME280;57264;47.480;19.354;2023-12-20T03:35:41;98889.59;;;-2.79;93.34
44697;BME280;57264;47.480;19.354;2023-12-20T03:38:07;98894.63;;;-2.83;93.53
44697;BME280;57264;47.480;19.354;2023-12-20T03:40:33;98893.81;;;-2.81;93.60
44697;BME280;57264;47.480;19.354;2023-12-20T03:42:58;98897.19;;;-2.82;93.44
44697;BME280;57264;47.480;19.354;2023-12-20T03:45:24;98896.25;;;-2.87;93.41
44697;BME280;57264;47.480;19.354;2023-12-20T03:47:50;98895.34;;;-2.92;93.79
44697;BME280;57264;47.480;19.354;2023-12-20T03:50:22;98904.66;;;-2.92;93.87
44697;BME280;57264;47.480;19.354;2023-12-20T03:52:48;98907.09;;;-2.97;93.81
44697;BME280;57264;47.480;19.354;2023-12-20T03:55:13;98894.41;;;-2.99;94.15
44697;BME280;57264;47.480;19.354;2023-12-20T03:57:39;98896.06;;;-3.01;93.92
44697;BME280;57264;47.480;19.354;2023-12-20T04:00:06;98893.53;;;-2.99;93.91
44697;BME280;57264;47.480;19.354;2023-12-20T04:02:38;98890.19;;;-2.97;94.17
44697;BME280;57264;47.480;19.354;2023-12-20T04:05:04;98897.00;;;-2.94;94.21
44697;BME280;57264;47.480;19.354;2023-12-20T04:07:30;98897.91;;;-2.92;93.96
44697;BME280;57264;47.480;19.354;2023-12-20T04:09:55;98905.50;;;-2.92;94.29
44697;BME280;57264;47.480;19.354;2023-12-20T04:12:21;98905.56;;;-2.87;94.20
44697;BME280;57264;47.480;19.354;2023-12-20T04:14:47;98903.88;;;-2.87;94.13
44697;BME280;57264;47.480;19.354;2023-12-20T04:17:12;98888.75;;;-2.81;94.24
44697;BME280;57264;47.480;19.354;2023-12-20T04:19:38;98881.47;;;-2.56;94.10
44697;BME280;57264;47.480;19.354;2023-12-20T04:22:03;98874.69;;;-2.57;94.35
44697;BME280;57264;47.480;19.354;2023-12-20T04:24:29;98875.31;;;-2.72;94.08
44697;BME280;57264;47.480;19.354;2023-12-20T04:26:54;98872.72;;;-2.74;94.09
44697;BME280;57264;47.480;19.354;2023-12-20T04:29:20;98864.19;;;-2.79;94.06
44697;BME280;57264;47.480;19.354;2023-12-20T04:31:45;98863.41;;;-2.75;94.07
44697;BME280;57264;47.480;19.354;2023-12-20T04:34:11;98857.34;;;-2.84;94.21
44697;BME280;57264;47.480;19.354;2023-12-20T04:36:37;98859.91;;;-2.81;94.17
44697;BME280;57264;47.480;19.354;2023-12-20T04:39:02;98857.25;;;-2.92;94.52
44697;BME280;57264;47.480;19.354;2023-12-20T04:41:28;98853.06;;;-2.88;94.38
44697;BME280;57264;47.480;19.354;2023-12-20T04:43:54;98848.84;;;-2.86;94.63
44697;BME280;57264;47.480;19.354;2023-12-20T04:46:19;98847.19;;;-2.83;94.34
44697;BME280;57264;47.480;19.354;2023-12-20T04:48:45;98838.59;;;-2.92;94.18
44697;BME280;57264;47.480;19.354;2023-12-20T04:51:10;98841.94;;;-2.93;94.49
44697;BME280;57264;47.480;19.354;2023-12-20T04:53:36;98839.41;;;-2.97;94.68
44697;BME280;57264;47.480;19.354;2023-12-20T04:56:01;98841.94;;;-2.95;94.35
44697;BME280;57264;47.480;19.354;2023-12-20T04:58:27;98838.59;;;-2.92;94.16
44697;BME280;57264;47.480;19.354;2023-12-20T05:00:53;98838.63;;;-2.91;94.39
44697;BME280;57264;47.480;19.354;2023-12-20T05:03:19;98833.59;;;-2.88;94.49
44697;BME280;57264;47.480;19.354;2023-12-20T05:05:44;98831.91;;;-2.86;94.27
44697;BME280;57264;47.480;19.354;2023-12-20T05:08:10;98805.94;;;-2.62;94.47
44697;BME280;57264;47.480;19.354;2023-12-20T05:10:36;98794.88;;;-2.65;94.29
44697;BME280;57264;47.480;19.354;2023-12-20T05:13:01;98778.00;;;-2.62;94.46
44697;BME280;57264;47.480;19.354;2023-12-20T05:15:27;98768.66;;;-2.63;94.73
44697;BME280;57264;47.480;19.354;2023-12-20T05:17:52;98787.25;;;-2.68;94.47
44697;BME280;57264;47.480;19.354;2023-12-20T05:20:18;98770.28;;;-2.69;94.13
44697;BME280;57264;47.480;19.354;2023-12-20T05:22:43;98762.72;;;-2.65;94.10
44697;BME280;57264;47.480;19.354;2023-12-20T05:25:10;98783.06;;;-2.65;94.41
44697;BME280;57264;47.480;19.354;2023-12-20T05:27:36;98777.94;;;-2.66;94.67
44697;BME280;57264;47.480;19.354;2023-12-20T05:30:02;98769.47;;;-2.68;94.32
44697;BME280;57264;47.480;19.354;2023-12-20T05:32:30;98776.19;;;-2.70;94.45
44697;BME280;57264;47.480;19.354;2023-12-20T05:34:56;98770.25;;;-2.73;94.57
44697;BME280;57264;47.480;19.354;2023-12-20T05:37:22;98775.25;;;-2.79;94.39
44697;BME280;57264;47.480;19.354;2023-12-20T05:39:47;98770.91;;;-2.86;94.38
44697;BME280;57264;47.480;19.354;2023-12-20T05:42:13;98767.38;;;-2.97;94.08
44697;BME280;57264;47.480;19.354;2023-12-20T05:44:39;98762.22;;;-3.05;94.19
44697;BME280;57264;47.480;19.354;2023-12-20T05:47:04;98770.59;;;-3.10;94.16
44697;BME280;57264;47.480;19.354;2023-12-20T05:49:30;98757.03;;;-3.12;94.23
44697;BME280;57264;47.480;19.354;2023-12-20T05:51:55;98780.75;;;-3.10;94.29
44697;BME280;57264;47.480;19.354;2023-12-20T05:54:21;98784.25;;;-3.02;94.35
44697;BME280;57264;47.480;19.354;2023-12-20T05:56:47;98790.34;;;-2.92;94.08
44697;BME280;57264;47.480;19.354;2023-12-20T05:59:13;98785.31;;;-2.86;94.37
44697;BME280;57264;47.480;19.354;2023-12-20T06:01:39;98786.31;;;-2.75;94.31
44697;BME280;57264;47.480;19.354;2023-12-20T06:04:04;98788.91;;;-2.70;94.31
44697;BME280;57264;47.480;19.354;2023-12-20T06:06:30;98786.41;;;-2.69;94.30
44697;BME280;57264;47.480;19.354;2023-12-20T06:08:55;98795.72;;;-2.66;94.20
44697;BME280;57264;47.480;19.354;2023-12-20T06:11:21;98795.03;;;-2.56;94.20
44697;BME280;57264;47.480;19.354;2023-12-20T06:13:46;98788.25;;;-2.54;94.24
44697;BME280;57264;47.480;19.354;2023-12-20T06:16:14;98782.31;;;-2.55;94.15
44697;BME280;57264;47.480;19.354;2023-12-20T06:18:40;98778.13;;;-2.53;94.46
44697;BME280;57264;47.480;19.354;2023-12-20T06:21:05;98768.81;;;-2.51;94.44
44697;BME280;57264;47.480;19.354;2023-12-20T06:23:32;98757.78;;;-2.51;94.27
44697;BME280;57264;47.480;19.354;2023-12-20T06:25:58;98763.75;;;-2.49;94.30
44697;BME280;57264;47.480;19.354;2023-12-20T06:28:24;98755.28;;;-2.48;94.08
44697;BME280;57264;47.480;19.354;2023-12-20T06:30:49;98749.34;;;-2.45;94.12
44697;BME280;57264;47.480;19.354;2023-12-20T06:33:17;98750.25;;;-2.45;93.91
44697;BME280;57264;47.480;19.354;2023-12-20T06:35:44;98749.41;;;-2.44;93.97
44697;BME280;57264;47.480;19.354;2023-12-20T06:38:09;98755.34;;;-2.42;94.14
44697;BME280;57264;47.480;19.354;2023-12-20T06:40:35;98757.88;;;-2.42;93.96
44697;BME280;57264;47.480;19.354;2023-12-20T06:43:00;98757.03;;;-2.44;94.24
44697;BME280;57264;47.480;19.354;2023-12-20T06:45:26;98745.16;;;-2.45;93.99
44697;BME280;57264;47.480;19.354;2023-12-20T06:47:51;98733.38;;;-2.35;93.83
44697;BME280;57264;47.480;19.354;2023-12-20T06:50:17;98741.03;;;-2.32;93.80
44697;BME280;57264;47.480;19.354;2023-12-20T06:52:42;98753.69;;;-2.41;93.86
44697;BME280;57264;47.480;19.354;2023-12-20T06:55:08;98753.59;;;-2.46;93.94
44697;BME280;57264;47.480;19.354;2023-12-20T06:57:34;98749.44;;;-2.41;93.91
44697;BME280;57264;47.480;19.354;2023-12-20T07:00:02;98761.31;;;-2.38;93.84
44697;BME280;57264;47.480;19.354;2023-12-20T07:02:27;98779.03;;;-2.46;94.27
44697;BME280;57264;47.480;19.354;2023-12-20T07:04:56;98804.44;;;-2.46;93.97
44697;BME280;57264;47.480;19.354;2023-12-20T07:07:21;98813.06;;;-2.36;94.20
44697;BME280;57264;47.480;19.354;2023-12-20T07:09:48;98812.22;;;-2.35;93.89
44697;BME280;57264;47.480;19.354;2023-12-20T07:12:14;98808.72;;;-2.42;93.95
44697;BME280;57264;47.480;19.354;2023-12-20T07:14:43;98811.31;;;-2.39;94.16
44697;BME280;57264;47.480;19.354;2023-12-20T07:17:10;98818.94;;;-2.40;94.13
44697;BME280;57264;47.480;19.354;2023-12-20T07:19:39;98812.97;;;-2.44;93.88
44697;BME280;57264;47.480;19.354;2023-12-20T07:22:06;98815.66;;;-2.30;94.20
44697;BME280;57264;47.480;19.354;2023-12-20T07:24:32;98801.38;;;-2.20;93.86
44697;BME280;57264;47.480;19.354;2023-12-20T07:26:59;98805.63;;;-2.18;93.78
44697;BME280;57264;47.480;19.354;2023-12-20T07:29:25;98800.53;;;-2.18;94.29
44697;BME280;57264;47.480;19.354;2023-12-20T07:31:50;98805.69;;;-2.10;94.11
44697;BME280;57264;47.480;19.354;2023-12-20T07:34:17;98804.84;;;-2.12;93.72
44697;BME280;57264;47.480;19.354;2023-12-20T07:36:43;98804.03;;;-2.07;93.84
44697;BME280;57264;47.480;19.354;2023-12-20T07:39:09;98808.31;;;-2.06;93.98
44697;BME280;57264;47.480;19.354;2023-12-20T07:41:34;98802.34;;;-2.08;93.65
44697;BME280;57264;47.480;19.354;2023-12-20T07:44:00;98798.56;;;-2.45;93.83
44697;BME280;57264;47.480;19.354;2023-12-20T07:46:25;98790.09;;;-2.44;93.77
44697;BME280;57264;47.480;19.354;2023-12-20T07:48:51;98796.00;;;-2.43;93.95
44697;BME280;57264;47.480;19.354;2023-12-20T07:51:16;98798.66;;;-2.34;93.48
44697;BME280;57264;47.480;19.354;2023-12-20T07:53:42;98794.59;;;-2.18;93.91
44697;BME280;57264;47.480;19.354;2023-12-20T07:56:18;98791.25;;;-2.16;93.94
44697;BME280;57264;47.480;19.354;2023-12-20T07:58:45;98794.50;;;-2.28;93.47
44697;BME280;57264;47.480;19.354;2023-12-20T08:01:11;98784.44;;;-2.17;93.84
44697;BME280;57264;47.480;19.354;2023-12-20T08:03:37;98779.53;;;-1.99;94.24
44697;BME280;57264;47.480;19.354;2023-12-20T08:06:03;98777.13;;;-1.85;93.73
44697;BME280;57264;47.480;19.354;2023-12-20T08:08:29;98782.13;;;-1.94;93.69
44697;BME280;57264;47.480;19.354;2023-12-20T08:10:55;98772.84;;;-1.87;93.66
44697;BME280;57264;47.480;19.354;2023-12-20T08:13:23;98775.44;;;-1.83;93.74
44697;BME280;57264;47.480;19.354;2023-12-20T08:15:51;98784.69;;;-1.94;93.27
44697;BME280;57264;47.480;19.354;2023-12-20T08:18:17;98782.03;;;-2.05;93.53
44697;BME280;57264;47.480;19.354;2023-12-20T08:20:43;98790.47;;;-2.07;93.59
44697;BME280;57264;47.480;19.354;2023-12-20T08:23:08;98784.69;;;-1.91;93.51
44697;BME280;57264;47.480;19.354;2023-12-20T08:25:34;98783.16;;;-1.70;93.34
44697;BME280;57264;47.480;19.354;2023-12-20T08:27:59;98778.16;;;-1.64;93.24
44697;BME280;57264;47.480;19.354;2023-12-20T08:30:26;98792.38;;;-1.86;93.27
44697;BME280;57264;47.480;19.354;2023-12-20T08:32:51;98783.06;;;-1.83;93.05
44697;BME280;57264;47.480;19.354;2023-12-20T08:35:17;98779.59;;;-1.94;92.85
44697;BME280;57264;47.480;19.354;2023-12-20T08:37:43;98780.41;;;-1.95;92.79
44697;BME280;57264;47.480;19.354;2023-12-20T08:40:09;98778.63;;;-2.02;92.87
44697;BME280;57264;47.480;19.354;2023-12-20T08:42:35;98777.97;;;-1.83;92.59
44697;BME280;57264;47.480;19.354;2023-12-20T08:45:01;98763.72;;;-1.64;92.76
44697;BME280;57264;47.480;19.354;2023-12-20T08:47:26;98767.22;;;-1.48;92.78
44697;BME280;57264;47.480;19.354;2023-12-20T08:49:52;98758.75;;;-1.49;92.64
44697;BME280;57264;47.480;19.354;2023-12-20T08:52:23;98772.09;;;-1.76;92.14
44697;BME280;57264;47.480;19.354;2023-12-20T08:54:50;98772.25;;;-1.62;92.25
44697;BME280;57264;47.480;19.354;2023-12-20T08:57:19;98776.47;;;-1.59;92.31
44697;BME280;57264;47.480;19.354;2023-12-20T08:59:46;98779.88;;;-1.62;91.94
44697;BME280;57264;47.480;19.354;2023-12-20T09:02:11;98783.44;;;-1.40;91.64
44697;BME280;57264;47.480;19.354;2023-12-20T09:04:37;98781.78;;;-1.32;91.52
44697;BME280;57264;47.480;19.354;2023-12-20T09:07:03;98787.78;;;-1.24;91.61
44697;BME280;57264;47.480;19.354;2023-12-20T09:09:29;98783.50;;;-1.28;91.06
44697;BME280;57264;47.480;19.354;2023-12-20T09:11:54;98780.09;;;-1.33;90.63
44697;BME280;57264;47.480;19.354;2023-12-20T09:14:20;98774.91;;;-1.45;90.34
44697;BME280;57264;47.480;19.354;2023-12-20T09:16:45;98769.91;;;-1.28;90.59
44697;BME280;57264;47.480;19.354;2023-12-20T09:19:11;98769.06;;;-1.30;90.31
44697;BME280;57264;47.480;19.354;2023-12-20T09:21:36;98770.03;;;-1.14;90.24
44697;BME280;57264;47.480;19.354;2023-12-20T09:24:02;98771.63;;;-1.27;89.82
44697;BME280;57264;47.480;19.354;2023-12-20T09:26:28;98775.06;;;-1.19;89.92
44697;BME280;57264;47.480;19.354;2023-12-20T09:28:53;98775.91;;;-1.20;89.63
44697;BME280;57264;47.480;19.354;2023-12-20T09:31:19;98775.13;;;-1.11;89.38
44697;BME280;57264;47.480;19.354;2023-12-20T09:33:44;98770.09;;;-0.99;89.25
44697;BME280;57264;47.480;19.354;2023-12-20T09:36:10;98769.16;;;-1.18;89.45
44697;BME280;57264;47.480;19.354;2023-12-20T09:38:35;98766.19;;;-1.71;89.58
44697;BME280;57264;47.480;19.354;2023-12-20T09:41:01;98761.66;;;-2.05;89.95
44697;BME280;57264;47.480;19.354;2023-12-20T09:43:41;98766.13;;;-1.81;90.86
44697;BME280;57264;47.480;19.354;2023-12-20T09:46:11;98755.13;;;-1.75;90.60
44697;BME280;57264;47.480;19.354;2023-12-20T09:48:40;98744.03;;;-1.85;91.27
44697;BME280;57264;47.480;19.354;2023-12-20T09:51:06;98735.59;;;-1.79;91.13
44697;BME280;57264;47.480;19.354;2023-12-20T09:53:34;98724.50;;;-1.87;91.51
44697;BME280;57264;47.480;19.354;2023-12-20T09:56:02;98714.53;;;-1.60;91.45
44697;BME280;57264;47.480;19.354;2023-12-20T09:58:28;98724.84;;;-1.41;91.19
44697;BME280;57264;47.480;19.354;2023-12-20T10:00:54;98715.53;;;-1.35;90.93
44697;BME280;57264;47.480;19.354;2023-12-20T10:03:25;98713.09;;;-1.18;90.80
44697;BME280;57264;47.480;19.354;2023-12-20T10:05:54;98721.53;;;-1.25;90.77
44697;BME280;57264;47.480;19.354;2023-12-20T10:08:21;98725.88;;;-1.07;90.84
44697;BME280;57264;47.480;19.354;2023-12-20T10:10:50;98717.28;;;-1.28;90.51
44697;BME280;57264;47.480;19.354;2023-12-20T10:13:15;98729.22;;;-1.20;90.49
44697;BME280;57264;47.480;19.354;2023-12-20T10:15:41;98716.63;;;-0.94;90.62
44697;BME280;57264;47.480;19.354;2023-12-20T10:18:07;98718.22;;;-1.09;90.01
44697;BME280;57264;47.480;19.354;2023-12-20T10:20:33;98711.34;;;-1.30;90.38
44697;BME280;57264;47.480;19.354;2023-12-20T10:23:00;98695.13;;;-1.39;90.79
44697;BME280;57264;47.480;19.354;2023-12-20T10:25:26;98694.28;;;-1.41;90.93
44697;BME280;57264;47.480;19.354;2023-12-20T10:28:11;98696.81;;;-1.40;91.32
44697;BME280;57264;47.480;19.354;2023-12-20T10:30:37;98692.72;;;-1.16;91.38
44697;BME280;57264;47.480;19.354;2023-12-20T10:33:05;98698.63;;;-1.20;91.30
44697;BME280;57264;47.480;19.354;2023-12-20T10:35:31;98694.41;;;-1.15;91.13
44697;BME280;57264;47.480;19.354;2023-12-20T10:37:56;98687.66;;;-1.10;90.98
44697;BME280;57264;47.480;19.354;2023-12-20T10:40:25;98675.84;;;-0.87;91.23
44697;BME280;57264;47.480;19.354;2023-12-20T10:42:56;98677.56;;;-0.77;91.36
44697;BME280;57264;47.480;19.354;2023-12-20T10:45:22;98680.19;;;-0.63;91.29
44697;BME280;57264;47.480;19.354;2023-12-20T10:47:49;98654.69;;;-0.58;91.06
44697;BME280;57264;47.480;19.354;2023-12-20T10:50:15;98648.72;;;-0.53;90.96
44697;BME280;57264;47.480;19.354;2023-12-20T10:52:42;98641.09;;;-0.45;90.92
44697;BME280;57264;47.480;19.354;2023-12-20T10:55:08;98620.69;;;-0.33;90.49
44697;BME280;57264;47.480;19.354;2023-12-20T10:57:36;98613.91;;;-0.18;90.63
44697;BME280;57264;47.480;19.354;2023-12-20T11:00:02;98609.66;;;-0.07;90.63
44697;BME280;57264;47.480;19.354;2023-12-20T11:02:39;98608.78;;;0.12;90.60
44697;BME280;57264;47.480;19.354;2023-12-20T11:06:13;98610.44;;;0.33;90.13
44697;BME280;57264;47.480;19.354;2023-12-20T11:08:22;98601.03;;;0.49;90.30
44697;BME280;57264;47.480;19.354;2023-12-20T11:11:13;98607.81;;;0.53;90.12
44697;BME280;57264;47.480;19.354;2023-12-20T11:14:03;98617.16;;;0.60;89.37
44697;BME280;57264;47.480;19.354;2023-12-20T11:16:37;98622.28;;;0.57;88.73
44697;BME280;57264;47.480;19.354;2023-12-20T11:19:05;98636.78;;;0.46;88.37
44697;BME280;57264;47.480;19.354;2023-12-20T11:21:31;98636.78;;;0.47;88.58
44697;BME280;57264;47.480;19.354;2023-12-20T11:23:57;98630.81;;;0.50;88.44
44697;BME280;57264;47.480;19.354;2023-12-20T11:26:27;98633.38;;;0.48;88.67
44697;BME280;57264;47.480;19.354;2023-12-20T11:28:54;98620.59;;;0.53;88.61
44697;BME280;57264;47.480;19.354;2023-12-20T11:31:19;98609.53;;;0.56;88.60
44697;BME280;57264;47.480;19.354;2023-12-20T11:33:45;98607.81;;;0.58;88.72
44697;BME280;57264;47.480;19.354;2023-12-20T11:36:15;98593.31;;;0.61;88.56
44697;BME280;57264;47.480;19.354;2023-12-20T11:38:57;98595.84;;;0.72;88.50
44697;BME280;57264;47.480;19.354;2023-12-20T11:41:23;98591.50;;;0.85;88.58
44697;BME280;57264;47.480;19.354;2023-12-20T11:43:56;98583.81;;;0.92;88.32
44697;BME280;57264;47.480;19.354;2023-12-20T11:46:22;98574.41;;;0.96;88.02
44697;BME280;57264;47.480;19.354;2023-12-20T11:48:48;98574.38;;;1.02;87.93
44697;BME280;57264;47.480;19.354;2023-12-20T11:51:13;98575.19;;;1.06;88.14
44697;BME280;57264;47.480;19.354;2023-12-20T11:53:40;98570.84;;;1.25;88.26
44697;BME280;57264;47.480;19.354;2023-12-20T11:56:07;98567.41;;;1.29;88.17
44697;BME280;57264;47.480;19.354;2023-12-20T11:58:34;98568.22;;;1.32;87.67
44697;BME280;57264;47.480;19.354;2023-12-20T12:00:59;98553.66;;;1.40;87.70
44697;BME280;57264;47.480;19.354;2023-12-20T12:03:25;98567.22;;;1.50;87.87
44697;BME280;57264;47.480;19.354;2023-12-20T12:05:51;98571.41;;;1.63;88.18
44697;BME280;57264;47.480;19.354;2023-12-20T12:08:17;98563.66;;;1.69;87.65
44697;BME280;57264;47.480;19.354;2023-12-20T12:10:44;98570.53;;;1.67;87.42
44697;BME280;57264;47.480;19.354;2023-12-20T12:13:10;98575.59;;;1.75;87.06
44697;BME280;57264;47.480;19.354;2023-12-20T12:15:37;98567.03;;;1.76;87.26
44697;BME280;57264;47.480;19.354;2023-12-20T12:18:04;98572.84;;;1.93;87.06
44697;BME280;57264;47.480;19.354;2023-12-20T12:20:30;98574.50;;;2.01;87.23
44697;BME280;57264;47.480;19.354;2023-12-20T12:23:03;98577.75;;;2.16;86.58
44697;BME280;57264;47.480;19.354;2023-12-20T12:25:30;98574.09;;;2.37;86.20
44697;BME280;57264;47.480;19.354;2023-12-20T12:27:57;98571.44;;;2.48;85.81
44697;BME280;57264;47.480;19.354;2023-12-20T12:30:24;98579.72;;;2.68;84.68
44697;BME280;57264;47.480;19.354;2023-12-20T12:32:51;98570.19;;;2.81;84.94
44697;BME280;57264;47.480;19.354;2023-12-20T12:35:17;98572.06;;;2.67;83.85
44697;BME280;57264;47.480;19.354;2023-12-20T12:37:43;98562.69;;;2.64;83.95
44697;BME280;57264;47.480;19.354;2023-12-20T12:40:13;98562.66;;;2.67;83.90
44697;BME280;57264;47.480;19.354;2023-12-20T12:42:39;98568.63;;;2.68;84.39
44697;BME280;57264;47.480;19.354;2023-12-20T12:45:05;98561.75;;;2.71;84.51
44697;BME280;57264;47.480;19.354;2023-12-20T12:47:31;98568.63;;;2.69;83.88
44697;BME280;57264;47.480;19.354;2023-12-20T12:49:56;98565.19;;;2.70;84.51